createdAt,value
2022-09-28T00:01:26.124Z,99722.13
2022-09-28T00:03:59.939Z,99721.88
2022-09-28T00:06:31.405Z,99721.88
2022-09-28T00:09:01.428Z,99711.69
2022-09-28T00:11:30.031Z,99715.88
2022-09-28T00:14:02.565Z,99723.72
2022-09-28T00:16:33.197Z,99721.09
2022-09-28T00:19:01.888Z,99723.72
2022-09-28T00:21:34.330Z,99725.53
2022-09-28T00:24:15.266Z,99732.34
2022-09-28T00:26:46.783Z,99731.56
2022-09-28T00:29:22.024Z,99732.34
2022-09-28T00:31:53.870Z,99726.34
2022-09-28T00:34:22.369Z,99720.06
2022-09-28T00:36:52.242Z,99713.00
2022-09-28T00:39:20.736Z,99716.66
2022-09-28T00:41:50.822Z,99722.69
2022-09-28T00:44:48.928Z,99716.97
2022-09-28T00:47:49.723Z,99722.44
2022-09-28T00:50:24.223Z,99717.44
2022-09-28T00:52:57.015Z,99709.59
2022-09-28T00:55:32.745Z,99705.16
2022-09-28T00:58:04.163Z,99700.97
2022-09-28T01:00:33.156Z,99708.03
2022-09-28T01:03:01.554Z,99702.00
2022-09-28T01:05:30.308Z,99697.81
2022-09-28T01:08:00.322Z,99699.38
2022-09-28T01:10:29.281Z,99685.50
2022-09-28T01:12:59.425Z,99688.91
2022-09-28T01:15:30.111Z,99691.53
2022-09-28T01:18:11.633Z,99691.28
2022-09-28T01:21:01.224Z,99694.69
2022-09-28T01:24:01.532Z,99685.28
2022-09-28T01:26:53.069Z,99681.06
2022-09-28T01:29:33.637Z,99683.16
2022-09-28T01:32:08.725Z,99670.06
2022-09-28T01:34:43.787Z,99664.84
2022-09-28T01:37:17.820Z,99679.50
2022-09-28T01:39:50.833Z,99677.91
2022-09-28T01:42:25.486Z,99678.69
2022-09-28T01:44:58.368Z,99677.91
2022-09-28T01:47:32.294Z,99692.56
2022-09-28T01:50:06.563Z,99684.72
2022-09-28T01:52:41.643Z,99690.75
2022-09-28T01:55:15.095Z,99691.78
2022-09-28T01:57:50.388Z,99681.31
2022-09-28T02:00:21.884Z,99673.72
2022-09-28T02:02:58.311Z,99675.31
2022-09-28T02:05:51.917Z,99668.50
2022-09-28T02:08:27.011Z,99677.91
2022-09-28T02:11:01.733Z,99685.75
2022-09-28T02:13:35.036Z,99687.34
2022-09-28T02:16:08.459Z,99693.59
2022-09-28T02:18:38.023Z,99690.44
2022-09-28T02:21:14.489Z,99698.31
2022-09-28T02:23:49.705Z,99712.16
2022-09-28T02:26:24.216Z,99711.13
2022-09-28T02:28:54.320Z,99706.69
2022-09-28T02:31:23.010Z,99698.06
2022-09-28T02:33:53.200Z,99698.59
2022-09-28T02:36:21.961Z,99693.59
2022-09-28T02:38:50.471Z,99691.78
2022-09-28T02:41:30.148Z,99681.31
2022-09-28T02:44:10.174Z,99682.09
2022-09-28T02:46:53.114Z,99689.41
2022-09-28T02:49:35.628Z,99689.41
2022-09-28T02:52:25.538Z,99706.44
2022-09-28T02:55:14.576Z,99714.78
2022-09-28T02:57:49.299Z,99703.78
2022-09-28T03:00:23.043Z,99689.63
2022-09-28T03:03:03.045Z,99689.13
2022-09-28T03:05:46.967Z,99682.06
2022-09-28T03:08:23.426Z,99676.84
2022-09-28T03:10:57.252Z,99686.25
2022-09-28T03:13:27.450Z,99687.28
2022-09-28T03:16:12.431Z,99684.19
2022-09-28T03:18:42.700Z,99682.59
2022-09-28T03:21:12.280Z,99678.66
2022-09-28T03:23:40.784Z,99686.75
2022-09-28T03:26:09.879Z,99678.13
2022-09-28T03:28:38.424Z,99676.28
2022-09-28T03:31:09.797Z,99679.44
2022-09-28T03:33:38.431Z,99674.22
2022-09-28T03:36:08.835Z,99674.22
2022-09-28T03:38:38.269Z,99683.66
2022-09-28T03:41:09.598Z,99676.88
2022-09-28T03:43:41.706Z,99684.22
2022-09-28T03:46:11.869Z,99684.22
2022-09-28T03:48:45.380Z,99683.69
2022-09-28T03:51:14.583Z,99676.88
2022-09-28T03:53:43.155Z,99678.69
2022-09-28T03:56:14.920Z,99680.53
2022-09-28T03:58:43.874Z,99678.94
2022-09-28T04:01:17.912Z,99675.53
2022-09-28T04:03:49.351Z,99675.78
2022-09-28T04:06:18.082Z,99674.22
2022-09-28T04:08:46.681Z,99662.72
2022-09-28T04:11:15.289Z,99662.19
2022-09-28T04:13:44.505Z,99674.47
2022-09-28T04:16:18.025Z,99670.28
2022-09-28T04:18:55.239Z,99678.13
2022-09-28T04:21:42.198Z,99680.97
2022-09-28T04:24:14.626Z,99698.50
2022-09-28T04:26:43.256Z,99693.81
2022-09-28T04:29:19.278Z,99685.41
2022-09-28T04:31:57.382Z,99671.56
2022-09-28T04:34:37.244Z,99675.22
2022-09-28T04:37:08.456Z,99678.88
2022-09-28T04:39:36.862Z,99690.91
2022-09-28T04:42:05.966Z,99676.00
2022-09-28T04:44:34.419Z,99687.00
2022-09-28T04:47:11.199Z,99684.13
2022-09-28T04:49:58.335Z,99671.06
2022-09-28T04:52:32.073Z,99660.59
2022-09-28T04:55:00.613Z,99663.75
2022-09-28T04:57:29.118Z,99667.41
2022-09-28T04:59:57.832Z,99659.56
2022-09-28T05:02:27.904Z,99663.75
2022-09-28T05:05:22.386Z,99667.41
2022-09-28T05:08:08.711Z,99668.44
2022-09-28T05:10:37.227Z,99651.72
2022-09-28T05:13:06.727Z,99650.44
2022-09-28T05:15:35.911Z,99646.00
2022-09-28T05:18:06.617Z,99651.75
2022-09-28T05:20:46.043Z,99649.16
2022-09-28T05:23:15.689Z,99651.22
2022-09-28T05:25:46.502Z,99646.00
2022-09-28T05:28:28.299Z,99648.84
2022-09-28T05:31:16.029Z,99649.63
2022-09-28T05:34:04.832Z,99656.69
2022-09-28T05:36:33.731Z,99660.59
2022-09-28T05:39:04.007Z,99664.25
2022-09-28T05:41:33.066Z,99662.69
2022-09-28T05:44:02.557Z,99661.09
2022-09-28T05:46:32.433Z,99658.47
2022-09-28T05:49:02.691Z,99666.31
2022-09-28T05:51:32.619Z,99663.72
2022-09-28T05:54:14.856Z,99669.97
2022-09-28T05:56:47.247Z,99676.78
2022-09-28T05:59:16.778Z,99677.56
2022-09-28T06:01:45.290Z,99676.53
2022-09-28T06:04:14.841Z,99684.69
2022-09-28T06:06:46.153Z,99671.34
2022-09-28T06:09:14.899Z,99666.91
2022-09-28T06:12:07.013Z,99678.94
2022-09-28T06:14:44.255Z,99677.66
2022-09-28T06:17:13.438Z,99666.41
2022-09-28T06:19:42.414Z,99671.66
2022-09-28T06:22:29.416Z,99671.09
2022-09-28T06:25:11.052Z,99664.28
2022-09-28T06:27:42.738Z,99659.31
2022-09-28T06:30:12.755Z,99664.78
2022-09-28T06:32:42.230Z,99674.16
2022-09-28T06:35:11.351Z,99668.94
2022-09-28T06:37:41.242Z,99669.97
2022-09-28T06:40:10.602Z,99678.88
2022-09-28T06:42:40.087Z,99672.06
2022-09-28T06:45:44.788Z,99674.13
2022-09-28T06:48:27.001Z,99672.53
2022-09-28T06:50:55.683Z,99667.31
2022-09-28T06:53:31.561Z,99662.88
2022-09-28T06:56:23.134Z,99672.00
2022-09-28T06:58:51.741Z,99675.66
2022-09-28T07:01:20.697Z,99679.06
2022-09-28T07:04:24.679Z,99691.56
2022-09-28T07:07:12.974Z,99694.41
2022-09-28T07:09:51.380Z,99697.03
2022-09-28T07:12:32.512Z,99698.06
2022-09-28T07:15:23.518Z,99697.28
2022-09-28T07:18:00.922Z,99697.78
2022-09-28T07:20:31.984Z,99696.44
2022-09-28T07:23:15.913Z,99694.63
2022-09-28T07:26:26.995Z,99690.44
2022-09-28T07:29:15.763Z,99694.38
2022-09-28T07:32:01.849Z,99693.09
2022-09-28T07:34:48.766Z,99681.59
2022-09-28T07:37:31.789Z,99689.19
2022-09-28T07:40:18.662Z,99693.16
2022-09-28T07:42:48.938Z,99700.53
2022-09-28T07:45:18.163Z,99695.28
2022-09-28T07:47:46.761Z,99701.31
2022-09-28T07:50:33.906Z,99700.78
2022-09-28T07:53:11.545Z,99700.28
2022-09-28T07:55:53.610Z,99702.66
2022-09-28T07:58:38.325Z,99709.22
2022-09-28T08:01:25.641Z,99705.81
2022-09-28T08:03:56.460Z,99711.34
2022-09-28T08:06:28.398Z,99705.06
2022-09-28T08:09:01.936Z,99691.75
2022-09-28T08:11:49.920Z,99690.16
2022-09-28T08:14:37.706Z,99687.25
2022-09-28T08:17:25.714Z,99694.59
2022-09-28T08:20:15.433Z,99702.44
2022-09-28T08:22:44.387Z,99713.44
2022-09-28T08:25:13.775Z,99719.22
2022-09-28T08:27:42.371Z,99723.16
2022-09-28T08:30:13.374Z,99726.56
2022-09-28T08:33:07.868Z,99724.50
2022-09-28T08:35:40.291Z,99736.31
2022-09-28T08:38:27.935Z,99743.94
2022-09-28T08:41:18.084Z,99748.66
2022-09-28T08:44:16.163Z,99754.69
2022-09-28T08:47:08.979Z,99752.31
2022-09-28T08:50:06.548Z,99755.97
2022-09-28T08:52:56.828Z,99751.78
2022-09-28T08:55:40.294Z,99759.63
2022-09-28T08:58:14.799Z,99754.41
2022-09-28T09:00:48.764Z,99751.78
2022-09-28T09:03:23.905Z,99749.94
2022-09-28T09:06:27.663Z,99759.63
2022-09-28T09:09:08.834Z,99757.22
2022-09-28T09:11:52.720Z,99762.25
2022-09-28T09:14:45.840Z,99764.84
2022-09-28T09:17:23.448Z,99756.44
2022-09-28T09:20:18.848Z,99752.25
2022-09-28T09:23:20.338Z,99749.09
2022-09-28T09:25:53.295Z,99754.56
2022-09-28T09:28:44.889Z,99762.16
2022-09-28T09:31:27.818Z,99765.03
2022-09-28T09:34:28.646Z,99761.13
2022-09-28T09:37:44.706Z,99766.59
2022-09-28T09:41:07.873Z,99762.66
2022-09-28T09:44:17.525Z,99756.38
2022-09-28T09:46:57.575Z,99746.97
2022-09-28T09:49:39.344Z,99744.34
2022-09-28T09:52:15.911Z,99739.34
2022-09-28T09:54:50.711Z,99739.34
2022-09-28T09:57:45.641Z,99744.84
2022-09-28T10:00:31.154Z,99751.91
2022-09-28T10:03:22.255Z,99752.19
2022-09-28T10:05:57.224Z,99748.00
2022-09-28T10:08:26.917Z,99744.03
2022-09-28T10:11:08.750Z,99752.97
2022-09-28T10:13:41.232Z,99765.28
2022-09-28T10:16:29.909Z,99761.31
2022-09-28T10:19:01.921Z,99777.56
2022-09-28T10:21:51.865Z,99769.97
2022-09-28T10:24:32.599Z,99767.34
2022-09-28T10:27:06.781Z,99759.50
2022-09-28T10:29:47.185Z,99758.47
2022-09-28T10:32:22.019Z,99759.00
2022-09-28T10:34:55.167Z,99762.16
2022-09-28T10:37:30.231Z,99765.81
2022-09-28T10:40:28.373Z,99773.91
2022-09-28T10:43:03.785Z,99781.69
2022-09-28T10:45:37.422Z,99779.88
2022-09-28T10:48:14.599Z,99781.47
2022-09-28T10:50:44.234Z,99781.75
2022-09-28T10:53:21.159Z,99787.53
2022-09-28T10:56:22.060Z,99786.75
2022-09-28T10:59:00.943Z,99788.31
2022-09-28T11:01:45.452Z,99779.69
2022-09-28T11:04:22.139Z,99789.91
2022-09-28T11:06:52.561Z,99781.25
2022-09-28T11:09:30.759Z,99787.03
2022-09-28T11:12:07.799Z,99778.66
2022-09-28T11:14:43.197Z,99786.25
2022-09-28T11:17:27.995Z,99782.06
2022-09-28T11:19:57.821Z,99783.88
2022-09-28T11:22:30.346Z,99783.63
2022-09-28T11:25:24.251Z,99787.63
2022-09-28T11:28:04.656Z,99793.84
2022-09-28T11:30:41.749Z,99793.06
2022-09-28T11:33:32.865Z,99796.72
2022-09-28T11:37:02.313Z,99797.75
2022-09-28T11:39:41.767Z,99792.53
2022-09-28T11:42:23.628Z,99794.34
2022-09-28T11:44:56.340Z,99790.94
2022-09-28T11:47:42.711Z,99802.72
2022-09-28T11:50:24.140Z,99805.59
2022-09-28T11:53:12.950Z,99803.22
2022-09-28T11:55:48.702Z,99805.06
2022-09-28T11:58:26.958Z,99804.00
2022-09-28T12:01:02.872Z,99799.81
2022-09-28T12:03:53.215Z,99798.00
2022-09-28T12:06:30.815Z,99799.56
2022-09-28T12:09:07.031Z,99790.94
2022-09-28T12:11:50.476Z,99789.59
2022-09-28T12:14:28.031Z,99795.31
2022-09-28T12:17:07.612Z,99800.31
2022-09-28T12:19:44.197Z,99793.81
2022-09-28T12:22:18.745Z,99795.38
2022-09-28T12:24:50.636Z,99793.56
2022-09-28T12:27:24.510Z,99800.38
2022-09-28T12:29:58.613Z,99804.81
2022-09-28T12:32:32.417Z,99805.59
2022-09-28T12:35:03.330Z,99800.38
2022-09-28T12:37:43.475Z,99798.28
2022-09-28T12:40:34.753Z,99801.47
2022-09-28T12:43:20.189Z,99811.94
2022-09-28T12:46:12.137Z,99807.50
2022-09-28T12:52:01.624Z,99823.66
2022-09-28T12:54:53.550Z,99823.41
2022-09-28T12:57:39.393Z,99828.19
2022-09-28T13:00:12.915Z,99832.63
2022-09-28T13:03:11.431Z,99831.34
2022-09-28T13:05:57.126Z,99837.63
2022-09-28T13:08:36.308Z,99836.03
2022-09-28T13:11:09.941Z,99844.13
2022-09-28T13:13:49.202Z,99848.78
2022-09-28T13:16:25.019Z,99851.75
2022-09-28T13:19:03.409Z,99850.69
2022-09-28T13:21:41.231Z,99843.88
2022-09-28T13:24:31.750Z,99855.38
2022-09-28T13:27:07.572Z,99863.00
2022-09-28T13:29:36.671Z,99858.00
2022-09-28T13:32:06.520Z,99862.19
2022-09-28T13:34:37.694Z,99868.22
2022-09-28T13:37:21.678Z,99865.59
2022-09-28T13:39:56.779Z,99878.44
2022-09-28T13:43:00.210Z,99883.44
2022-09-28T13:45:41.374Z,99888.91
2022-09-28T13:48:17.199Z,99887.09
2022-09-28T13:51:09.753Z,99900.72
2022-09-28T13:54:11.871Z,99906.19
2022-09-28T13:56:50.401Z,99912.47
2022-09-28T13:59:27.184Z,99915.06
2022-09-28T14:02:06.879Z,99911.91
2022-09-28T14:04:57.374Z,99912.47
2022-09-28T14:10:20.628Z,99898.34
2022-09-28T14:12:52.388Z,99911.66
2022-09-28T14:15:41.110Z,99909.34
2022-09-28T14:18:23.525Z,99905.41
2022-09-28T14:21:17.621Z,99913.00
2022-09-28T14:24:05.538Z,99920.06
2022-09-28T14:27:08.118Z,99925.28
2022-09-28T14:29:39.721Z,99924.19
2022-09-28T14:32:24.228Z,99921.34
2022-09-28T14:35:02.433Z,99931.81
2022-09-28T14:37:52.447Z,99925.00
2022-09-28T14:40:44.706Z,99921.34
2022-09-28T14:43:28.208Z,99918.72
2022-09-28T14:46:30.663Z,99920.31
2022-09-28T14:49:01.788Z,99931.00
2022-09-28T14:52:02.816Z,99936.00
2022-09-28T14:54:40.343Z,99932.06
2022-09-28T14:57:17.874Z,99943.31
2022-09-28T14:59:47.898Z,99948.53
2022-09-28T15:02:38.587Z,99951.47
2022-09-28T15:05:17.820Z,99956.94
2022-09-28T15:07:49.691Z,99956.16
2022-09-28T15:10:31.491Z,99952.25
2022-09-28T15:13:02.067Z,99950.66
2022-09-28T15:15:35.261Z,99954.88
2022-09-28T15:18:27.747Z,99949.63
2022-09-28T15:20:56.907Z,99955.91
2022-09-28T15:23:27.108Z,99961.63
2022-09-28T15:25:56.657Z,99971.53
2022-09-28T15:28:25.841Z,99976.53
2022-09-28T15:31:01.531Z,99977.31
2022-09-28T15:33:59.344Z,99984.38
2022-09-28T15:36:31.260Z,99983.34
2022-09-28T15:39:04.235Z,99984.13
2022-09-28T15:41:33.627Z,99990.94
2022-09-28T15:44:30.061Z,99991.75
2022-09-28T15:47:15.054Z,99998.78
2022-09-28T15:49:57.237Z,100004.28
2022-09-28T15:52:34.073Z,100003.47
2022-09-28T15:55:05.319Z,100006.09
2022-09-28T15:57:39.807Z,100013.94
2022-09-28T16:00:25.423Z,100009.50
2022-09-28T16:03:06.617Z,100014.75
2022-09-28T16:05:45.425Z,100020.22
2022-09-28T16:08:21.539Z,100017.59
2022-09-28T16:11:12.304Z,100031.22
2022-09-28T16:13:50.094Z,100028.63
2022-09-28T16:16:18.791Z,100028.84
2022-09-28T16:18:49.720Z,100036.69
2022-09-28T16:21:31.730Z,100034.88
2022-09-28T16:24:00.301Z,100039.56
2022-09-28T16:26:33.360Z,100035.31
2022-09-28T16:29:07.376Z,100038.97
2022-09-28T16:31:37.319Z,100038.97
2022-09-28T16:34:21.403Z,100045.34
2022-09-28T16:36:51.688Z,100043.19
2022-09-28T16:39:20.851Z,100044.00
2022-09-28T16:41:55.522Z,100046.63
2022-09-28T16:44:26.369Z,100049.22
2022-09-28T16:46:57.104Z,100056.25
2022-09-28T16:49:26.981Z,100054.66
2022-09-28T16:51:56.969Z,100058.88
2022-09-28T16:54:44.197Z,100058.88
2022-09-28T16:57:14.513Z,100069.34
2022-09-28T16:59:42.960Z,100074.56
2022-09-28T17:02:42.272Z,100079.81
2022-09-28T17:05:08.072Z,100085.28
2022-09-28T17:07:37.885Z,100082.91
2022-09-28T17:10:16.811Z,100088.59
2022-09-28T17:12:45.296Z,100093.84
2022-09-28T17:15:15.793Z,100099.88
2022-09-28T17:17:44.237Z,100100.66
2022-09-28T17:20:22.585Z,100115.09
2022-09-28T17:22:53.506Z,100126.56
2022-09-28T17:25:23.223Z,100117.94
2022-09-28T17:27:54.043Z,100117.69
2022-09-28T17:30:23.840Z,100122.13
2022-09-28T17:32:54.279Z,100128.97
2022-09-28T17:35:24.599Z,100128.97
2022-09-28T17:37:55.530Z,100132.38
2022-09-28T17:40:28.482Z,100132.38
2022-09-28T17:42:57.810Z,100135.78
2022-09-28T17:45:28.744Z,100143.63
2022-09-28T17:47:57.466Z,100132.38
2022-09-28T17:50:28.105Z,100147.03
2022-09-28T17:53:06.047Z,100150.69
2022-09-28T17:55:36.751Z,100151.47
2022-09-28T17:58:15.869Z,100150.69
2022-09-28T18:00:45.000Z,100143.06
2022-09-28T18:03:16.711Z,100149.34
2022-09-28T18:05:46.798Z,100148.31
2022-09-28T18:08:19.373Z,100143.06
2022-09-28T18:10:49.082Z,100151.94
2022-09-28T18:13:18.259Z,100151.94
2022-09-28T18:15:46.610Z,100154.81
2022-09-28T18:18:15.027Z,100157.41
2022-09-28T18:20:43.479Z,100158.53
2022-09-28T18:23:11.984Z,100162.53
2022-09-28T18:25:43.253Z,100165.69
2022-09-28T18:28:12.445Z,100167.28
2022-09-28T18:30:41.314Z,100168.88
2022-09-28T18:33:10.263Z,100174.09
2022-09-28T18:35:39.053Z,100172.59
2022-09-28T18:38:08.148Z,100169.50
2022-09-28T18:40:36.924Z,100167.69
2022-09-28T18:43:06.853Z,100176.56
2022-09-28T18:45:36.963Z,100184.72
2022-09-28T18:48:05.511Z,100189.50
2022-09-28T18:50:34.490Z,100190.03
2022-09-28T18:53:12.588Z,100190.03
2022-09-28T18:55:41.626Z,100189.81
2022-09-28T18:58:12.637Z,100192.19
2022-09-28T19:00:43.325Z,100187.75
2022-09-28T19:03:14.445Z,100203.44
2022-09-28T19:05:43.995Z,100205.03
2022-09-28T19:08:12.492Z,100206.06
2022-09-28T19:10:41.007Z,100208.69
2022-09-28T19:13:11.854Z,100214.72
2022-09-28T19:15:40.463Z,100211.31
2022-09-28T19:18:09.138Z,100213.91
2022-09-28T19:20:37.743Z,100218.91
2022-09-28T19:23:06.157Z,100223.34
2022-09-28T19:25:35.836Z,100222.88
2022-09-28T19:28:04.429Z,100227.56
2022-09-28T19:30:34.268Z,100229.16
2022-09-28T19:33:05.072Z,100230.97
2022-09-28T19:35:33.524Z,100236.19
2022-09-28T19:38:01.993Z,100234.38
2022-09-28T19:40:30.615Z,100241.44
2022-09-28T19:42:59.887Z,100242.47
2022-09-28T19:45:28.289Z,100246.34
2022-09-28T19:47:59.589Z,100254.91
2022-09-28T19:50:28.110Z,100251.28
2022-09-28T19:53:01.747Z,100246.59
2022-09-28T19:55:31.855Z,100233.50
2022-09-28T19:58:00.379Z,100230.88
2022-09-28T20:00:29.102Z,100238.75
2022-09-28T20:02:59.846Z,100237.38
2022-09-28T20:05:28.428Z,100239.78
2022-09-28T20:07:56.891Z,100245.56
2022-09-28T20:10:25.372Z,100247.16
2022-09-28T20:12:53.918Z,100246.91
2022-09-28T20:15:23.855Z,100244.84
2022-09-28T20:17:52.468Z,100248.25
2022-09-28T20:20:22.262Z,100240.16
2022-09-28T20:22:50.899Z,100244.63
2022-09-28T20:25:19.249Z,100240.97
2022-09-28T20:27:47.791Z,100240.97
2022-09-28T20:30:16.449Z,100236.75
2022-09-28T20:32:49.308Z,100239.03
2022-09-28T20:35:30.326Z,100244.50
2022-09-28T20:38:08.163Z,100246.09
2022-09-28T20:40:36.846Z,100251.88
2022-09-28T20:43:06.785Z,100246.41
2022-09-28T20:45:37.045Z,100250.63
2022-09-28T20:48:06.644Z,100253.00
2022-09-28T20:50:35.281Z,100258.56
2022-09-28T20:53:05.250Z,100256.25
2022-09-28T20:55:33.744Z,100260.22
2022-09-28T20:58:04.412Z,100252.16
2022-09-28T21:00:32.927Z,100259.75
2022-09-28T21:03:01.434Z,100260.31
2022-09-28T21:05:30.720Z,100276.03
2022-09-28T21:07:59.802Z,100267.38
2022-09-28T21:10:31.293Z,100268.97
2022-09-28T21:12:59.879Z,100267.13
2022-09-28T21:15:28.455Z,100276.59
2022-09-28T21:17:56.826Z,100284.44
2022-09-28T21:20:25.398Z,100288.63
2022-09-28T21:22:53.824Z,100288.88
2022-09-28T21:25:22.385Z,100284.66
2022-09-28T21:27:53.471Z,100288.09
2022-09-28T21:30:22.052Z,100293.88
2022-09-28T21:32:52.346Z,100296.50
2022-09-28T21:35:20.864Z,100296.28
2022-09-28T21:37:49.731Z,100289.44
2022-09-28T21:40:18.184Z,100295.47
2022-09-28T21:42:46.616Z,100299.13
2022-09-28T21:45:17.483Z,100305.94
2022-09-28T21:47:52.852Z,100298.09
2022-09-28T21:50:23.165Z,100308.78
2022-09-28T21:52:52.573Z,100303.22
2022-09-28T21:55:22.150Z,100307.09
2022-09-28T21:57:51.905Z,100307.34
2022-09-28T22:00:23.679Z,100312.59
2022-09-28T22:02:52.860Z,100310.19
2022-09-28T22:05:21.432Z,100314.63
2022-09-28T22:07:49.879Z,100313.06
2022-09-28T22:10:18.429Z,100320.09
2022-09-28T22:12:46.900Z,100326.13
2022-09-28T22:15:15.395Z,100326.94
2022-09-28T22:17:45.326Z,100322.50
2022-09-28T22:20:13.829Z,100328.19
2022-09-28T22:22:42.337Z,100330.56
2022-09-28T22:25:11.056Z,100321.94
2022-09-28T22:27:40.748Z,100323.75
2022-09-28T22:30:10.178Z,100328.19
2022-09-28T22:32:38.641Z,100329.78
2022-09-28T22:35:10.045Z,100330.81
2022-09-28T22:37:38.540Z,100342.06
2022-09-28T22:40:07.901Z,100346.50
2022-09-28T22:42:36.380Z,100341.28
2022-09-28T22:45:05.445Z,100350.94
2022-09-28T22:47:34.112Z,100355.41
2022-09-28T22:50:02.662Z,100345.94
2022-09-28T22:52:32.922Z,100346.75
2022-09-28T22:55:01.416Z,100345.94
2022-09-28T22:57:31.600Z,100339.69
2022-09-28T23:00:00.066Z,100340.72
2022-09-28T23:02:28.669Z,100344.13
2022-09-28T23:04:57.149Z,100338.91
2022-09-28T23:07:29.886Z,100335.72
2022-09-28T23:10:01.794Z,100335.72
2022-09-28T23:12:33.427Z,100338.56
2022-09-28T23:15:01.927Z,100338.34
2022-09-28T23:17:30.940Z,100337.44
2022-09-28T23:19:59.549Z,100351.00
2022-09-28T23:22:27.983Z,100346.31
2022-09-28T23:24:56.452Z,100349.75
2022-09-28T23:27:26.577Z,100359.19
2022-09-28T23:29:54.986Z,100358.38
2022-09-28T23:32:23.339Z,100353.38
2022-09-28T23:34:51.874Z,100359.19
2022-09-28T23:37:20.238Z,100353.94
2022-09-28T23:39:48.869Z,100361.78
2022-09-28T23:42:17.355Z,100363.63
2022-09-28T23:44:47.285Z,100354.75
2022-09-28T23:47:15.724Z,100354.75
2022-09-28T23:49:44.352Z,100347.91
2022-09-28T23:52:12.854Z,100348.94
2022-09-28T23:54:41.519Z,100351.56
2022-09-28T23:57:09.981Z,100348.16
2022-09-28T23:59:38.802Z,100339.50
